createdAt,value
2023-05-05T00:01:06.219Z,101529.22
2023-05-05T00:03:34.399Z,101522.50
2023-05-05T00:06:01.225Z,101525.28
2023-05-05T00:08:28.485Z,101518.50
2023-05-05T00:10:55.994Z,101517.56
2023-05-05T00:13:22.942Z,101520.38
2023-05-05T00:15:51.378Z,101530.59
2023-05-05T00:18:18.801Z,101528.94
2023-05-05T00:20:47.188Z,101522.19
2023-05-05T00:23:14.994Z,101516.09
2023-05-05T00:25:41.590Z,101514.38
2023-05-05T00:28:08.062Z,101511.91
2023-05-05T00:30:34.672Z,101516.22
2023-05-05T00:33:01.547Z,101508.56
2023-05-05T00:35:28.002Z,101499.19
2023-05-05T00:37:55.180Z,101502.56
2023-05-05T00:40:21.765Z,101502.63
2023-05-05T00:42:50.686Z,101522.59
2023-05-05T00:45:18.190Z,101522.88
2023-05-05T00:47:54.066Z,101525.66
2023-05-05T00:50:25.358Z,101537.75
2023-05-05T00:53:03.402Z,101534.31
2023-05-05T00:55:30.806Z,101537.81
2023-05-05T00:57:58.054Z,101530.00
2023-05-05T01:00:25.103Z,101528.25
2023-05-05T01:02:52.625Z,101520.41
2023-05-05T01:05:23.719Z,101516.06
2023-05-05T01:08:16.491Z,101519.53
2023-05-05T01:10:52.940Z,101514.47
2023-05-05T01:13:22.696Z,101514.53
2023-05-05T01:15:58.903Z,101513.69
2023-05-05T01:18:36.859Z,101523.47
2023-05-05T01:21:20.315Z,101521.84
2023-05-05T01:24:04.342Z,101530.56
2023-05-05T01:26:48.009Z,101521.72
2023-05-05T01:29:52.126Z,101529.34
2023-05-05T01:32:26.032Z,101531.78
2023-05-05T01:34:58.439Z,101541.94
2023-05-05T01:37:29.267Z,101543.34
2023-05-05T01:40:03.787Z,101550.03
2023-05-05T01:42:31.708Z,101542.19
2023-05-05T01:44:59.508Z,101535.22
2023-05-05T01:47:27.836Z,101538.47
2023-05-05T01:49:54.496Z,101547.09
2023-05-05T01:52:22.715Z,101553.19
2023-05-05T01:54:50.501Z,101555.63
2023-05-05T01:57:18.196Z,101563.31
2023-05-05T01:59:44.630Z,101581.38
2023-05-05T02:02:13.250Z,101574.38
2023-05-05T02:04:43.697Z,101578.50
2023-05-05T02:07:12.582Z,101571.47
2023-05-05T02:09:40.784Z,101552.38
2023-05-05T02:12:08.379Z,101520.34
2023-05-05T02:14:36.139Z,101524.53
2023-05-05T02:17:04.045Z,101517.63
2023-05-05T02:19:36.307Z,101509.78
2023-05-05T02:22:03.052Z,101520.19
2023-05-05T02:24:29.579Z,101540.28
2023-05-05T02:26:58.421Z,101549.22
2023-05-05T02:29:49.419Z,101540.03
2023-05-05T02:32:27.700Z,101531.56
2023-05-05T02:34:55.320Z,101534.34
2023-05-05T02:37:24.066Z,101539.69
2023-05-05T02:40:06.572Z,101538.13
2023-05-05T02:42:40.136Z,101538.38
2023-05-05T02:45:14.392Z,101535.25
2023-05-05T02:47:40.972Z,101539.03
2023-05-05T02:50:09.100Z,101538.44
2023-05-05T02:52:36.127Z,101532.66
2023-05-05T02:55:04.240Z,101527.81
2023-05-05T02:57:51.513Z,101532.44
2023-05-05T03:00:40.646Z,101530.91
2023-05-05T03:03:22.128Z,101531.13
2023-05-05T03:06:00.614Z,101534.09
2023-05-05T03:08:33.925Z,101538.63
2023-05-05T03:11:13.361Z,101547.50
2023-05-05T03:13:43.943Z,101546.06
2023-05-05T03:16:13.180Z,101553.25
2023-05-05T03:18:42.326Z,101551.72
2023-05-05T03:21:09.462Z,101553.72
2023-05-05T03:23:36.256Z,101551.22
2023-05-05T03:26:02.845Z,101559.16
2023-05-05T03:28:29.429Z,101564.44
2023-05-05T03:30:56.364Z,101565.56
2023-05-05T03:33:22.903Z,101575.13
2023-05-05T03:35:49.264Z,101581.16
2023-05-05T03:38:15.651Z,101566.63
2023-05-05T03:40:44.603Z,101556.31
2023-05-05T03:43:11.506Z,101545.97
2023-05-05T03:45:38.026Z,101550.31
2023-05-05T03:48:04.854Z,101567.59
2023-05-05T03:50:31.618Z,101573.81
2023-05-05T03:52:57.958Z,101578.19
2023-05-05T03:55:24.555Z,101582.69
2023-05-05T03:57:51.002Z,101592.47
2023-05-05T04:00:17.960Z,101596.16
2023-05-05T04:02:44.526Z,101598.94
2023-05-05T04:05:11.027Z,101590.16
2023-05-05T04:07:37.502Z,101608.06
2023-05-05T04:10:04.189Z,101613.16
2023-05-05T04:12:30.710Z,101612.38
2023-05-05T04:14:57.190Z,101615.97
2023-05-05T04:17:23.781Z,101623.66
2023-05-05T04:19:50.238Z,101622.00
2023-05-05T04:22:16.742Z,101625.47
2023-05-05T04:24:43.107Z,101626.34
2023-05-05T04:27:09.515Z,101632.28
2023-05-05T04:29:36.106Z,101629.78
2023-05-05T04:32:02.523Z,101640.22
2023-05-05T04:34:29.046Z,101642.00
2023-05-05T04:36:55.426Z,101643.06
2023-05-05T04:39:21.862Z,101652.69
2023-05-05T04:41:48.271Z,101650.97
2023-05-05T04:44:14.659Z,101648.34
2023-05-05T04:46:41.459Z,101649.16
2023-05-05T04:49:09.131Z,101649.09
2023-05-05T04:51:35.653Z,101642.19
2023-05-05T04:54:02.126Z,101660.97
2023-05-05T04:56:31.895Z,101647.97
2023-05-05T04:58:58.387Z,101657.41
2023-05-05T05:01:25.034Z,101665.91
2023-05-05T05:03:51.465Z,101669.31
2023-05-05T05:06:17.867Z,101665.88
2023-05-05T05:08:44.330Z,101671.03
2023-05-05T05:11:10.858Z,101669.28
2023-05-05T05:13:37.290Z,101667.50
2023-05-05T05:16:03.877Z,101672.56
2023-05-05T05:18:30.625Z,101659.66
2023-05-05T05:20:57.001Z,101668.13
2023-05-05T05:23:23.763Z,101676.69
2023-05-05T05:25:50.711Z,101673.09
2023-05-05T05:28:17.154Z,101672.13
2023-05-05T05:30:43.555Z,101677.19
2023-05-05T05:33:10.551Z,101678.00
2023-05-05T05:35:37.148Z,101681.31
2023-05-05T05:38:03.689Z,101682.13
2023-05-05T05:40:30.102Z,101669.03
2023-05-05T05:42:56.948Z,101680.09
2023-05-05T05:45:26.388Z,101697.16
2023-05-05T05:47:52.882Z,101697.00
2023-05-05T05:50:19.384Z,101696.00
2023-05-05T05:52:45.864Z,101691.69
2023-05-05T05:55:12.356Z,101705.16
2023-05-05T05:57:38.825Z,101698.22
2023-05-05T06:00:06.320Z,101697.22
2023-05-05T06:02:33.000Z,101692.72
2023-05-05T06:04:59.410Z,101687.31
2023-05-05T06:07:26.267Z,101688.91
2023-05-05T06:09:52.658Z,101694.69
2023-05-05T06:12:19.015Z,101692.78
2023-05-05T06:14:45.586Z,101684.72
2023-05-05T06:17:11.976Z,101684.91
2023-05-05T06:19:43.321Z,101672.91
2023-05-05T06:22:09.719Z,101670.84
2023-05-05T06:24:36.114Z,101676.66
2023-05-05T06:27:02.563Z,101682.88
2023-05-05T06:29:28.998Z,101684.00
2023-05-05T06:31:55.597Z,101690.59
2023-05-05T06:34:22.004Z,101697.94
2023-05-05T06:36:48.407Z,101696.09
2023-05-05T06:39:16.085Z,101697.47
2023-05-05T06:41:42.822Z,101699.22
2023-05-05T06:44:10.623Z,101707.06
2023-05-05T06:46:37.186Z,101709.13
2023-05-05T06:49:03.653Z,101711.66
2023-05-05T06:51:30.255Z,101713.06
2023-05-05T06:53:56.786Z,101716.16
2023-05-05T06:56:23.877Z,101708.69
2023-05-05T06:58:50.483Z,101717.03
2023-05-05T07:01:17.089Z,101719.53
2023-05-05T07:03:43.996Z,101717.69
2023-05-05T07:06:10.424Z,101720.53
2023-05-05T07:08:36.832Z,101725.81
2023-05-05T07:11:03.342Z,101726.72
2023-05-05T07:13:29.861Z,101724.75
2023-05-05T07:15:56.752Z,101729.25
2023-05-05T07:18:23.515Z,101718.50
2023-05-05T07:20:49.925Z,101725.38
2023-05-05T07:23:16.299Z,101725.19
2023-05-05T07:25:42.729Z,101720.09
2023-05-05T07:28:09.772Z,101722.88
2023-05-05T07:30:36.192Z,101729.94
2023-05-05T07:33:03.077Z,101730.94
2023-05-05T07:35:30.494Z,101726.94
2023-05-05T07:37:57.038Z,101730.88
2023-05-05T07:40:23.870Z,101733.59
2023-05-05T07:42:50.373Z,101732.28
2023-05-05T07:45:16.863Z,101734.25
2023-05-05T07:47:43.336Z,101732.22
2023-05-05T07:50:10.324Z,101733.81
2023-05-05T07:52:45.161Z,101731.13
2023-05-05T07:55:12.968Z,101732.13
2023-05-05T07:57:39.460Z,101731.38
2023-05-05T08:00:06.714Z,101723.47
2023-05-05T08:02:33.463Z,101732.69
2023-05-05T08:04:59.937Z,101727.94
2023-05-05T08:07:26.424Z,101729.34
2023-05-05T08:09:52.762Z,101732.66
2023-05-05T08:12:19.367Z,101729.56
2023-05-05T08:14:45.740Z,101736.69
2023-05-05T08:17:12.110Z,101736.22
2023-05-05T08:19:38.509Z,101729.84
2023-05-05T08:22:04.938Z,101729.81
2023-05-05T08:24:31.790Z,101741.47
2023-05-05T08:26:58.287Z,101736.47
2023-05-05T08:29:24.682Z,101732.25
2023-05-05T08:31:51.470Z,101733.09
2023-05-05T08:34:17.975Z,101734.25
2023-05-05T08:36:44.394Z,101725.34
2023-05-05T08:39:10.872Z,101743.97
2023-05-05T08:41:37.475Z,101743.34
2023-05-05T08:44:03.959Z,101744.63
2023-05-05T08:46:31.483Z,101750.06
2023-05-05T08:48:58.767Z,101741.91
2023-05-05T08:51:31.673Z,101750.97
2023-05-05T08:54:03.239Z,101759.00
2023-05-05T08:56:34.140Z,101755.59
2023-05-05T08:59:02.038Z,101754.53
2023-05-05T09:01:29.960Z,101761.16
2023-05-05T09:03:58.467Z,101756.59
2023-05-05T09:06:27.343Z,101751.00
2023-05-05T09:08:54.204Z,101756.16
2023-05-05T09:11:21.553Z,101747.28
2023-05-05T09:13:48.440Z,101745.09
2023-05-05T09:16:14.946Z,101740.50
2023-05-05T09:18:42.656Z,101754.66
2023-05-05T09:21:25.956Z,101747.88
2023-05-05T09:24:08.554Z,101742.19
2023-05-05T09:26:37.549Z,101742.91
2023-05-05T09:29:04.913Z,101741.13
2023-05-05T09:31:32.658Z,101749.34
2023-05-05T09:34:01.111Z,101753.31
2023-05-05T09:36:43.799Z,101752.34
2023-05-05T09:39:10.588Z,101748.94
2023-05-05T09:41:38.596Z,101748.69
2023-05-05T09:44:05.285Z,101749.44
2023-05-05T09:46:32.030Z,101748.72
2023-05-05T09:49:19.837Z,101746.28
2023-05-05T09:51:47.545Z,101745.38
2023-05-05T09:54:28.787Z,101735.13
2023-05-05T09:56:56.521Z,101742.47
2023-05-05T09:59:23.922Z,101746.84
2023-05-05T10:01:51.126Z,101742.50
2023-05-05T10:04:28.337Z,101740.72
2023-05-05T10:06:59.133Z,101735.31
2023-05-05T10:09:26.804Z,101738.09
2023-05-05T10:11:54.645Z,101733.47
2023-05-05T10:14:21.261Z,101752.25
2023-05-05T10:16:54.164Z,101765.47
2023-05-05T10:19:22.674Z,101799.41
2023-05-05T10:21:53.842Z,101813.41
2023-05-05T10:24:34.491Z,101766.63
2023-05-05T10:27:04.140Z,101783.88
2023-05-05T10:29:37.114Z,101787.31
2023-05-05T10:32:36.991Z,101785.69
2023-05-05T10:35:03.801Z,101785.63
2023-05-05T10:37:31.023Z,101770.41
2023-05-05T10:39:58.673Z,101770.47
2023-05-05T10:42:25.620Z,101772.16
2023-05-05T10:44:52.273Z,101768.34
2023-05-05T10:47:20.744Z,101772.78
2023-05-05T10:50:12.998Z,101784.28
2023-05-05T10:52:48.586Z,101783.69
2023-05-05T10:55:31.685Z,101789.31
2023-05-05T10:57:58.107Z,101779.25
2023-05-05T11:00:39.788Z,101807.69
2023-05-05T11:03:18.571Z,101805.91
2023-05-05T11:06:03.247Z,101823.41
2023-05-05T11:08:31.547Z,101821.66
2023-05-05T11:10:58.822Z,101825.88
2023-05-05T11:13:25.795Z,101825.09
2023-05-05T11:15:54.084Z,101817.53
2023-05-05T11:18:44.236Z,101827.19
2023-05-05T11:21:15.873Z,101824.72
2023-05-05T11:23:47.194Z,101814.19
2023-05-05T11:26:15.456Z,101799.34
2023-05-05T11:29:08.418Z,101798.47
2023-05-05T11:31:34.913Z,101815.56
2023-05-05T11:34:27.783Z,101816.41
2023-05-05T11:37:00.258Z,101831.47
2023-05-05T11:39:37.642Z,101842.94
2023-05-05T11:42:20.182Z,101836.16
2023-05-05T11:44:46.722Z,101836.97
2023-05-05T11:47:13.121Z,101832.53
2023-05-05T11:49:40.035Z,101833.31
2023-05-05T11:52:12.331Z,101830.78
2023-05-05T11:54:50.228Z,101825.81
2023-05-05T11:57:20.824Z,101829.53
2023-05-05T11:59:54.648Z,101827.31
2023-05-05T12:02:22.314Z,101831.63
2023-05-05T12:04:49.827Z,101828.81
2023-05-05T12:07:17.844Z,101823.72
2023-05-05T12:09:45.794Z,101819.94
2023-05-05T12:12:13.282Z,101815.44
2023-05-05T12:14:47.194Z,101819.66
2023-05-05T12:17:14.102Z,101818.72
2023-05-05T12:19:54.868Z,101818.94
2023-05-05T12:22:26.137Z,101821.25
2023-05-05T12:25:01.165Z,101823.59
2023-05-05T12:27:28.674Z,101821.66
2023-05-05T12:29:56.724Z,101817.06
2023-05-05T12:32:30.995Z,101817.06
2023-05-05T12:34:57.654Z,101823.97
2023-05-05T12:37:26.071Z,101822.31
2023-05-05T12:39:54.958Z,101815.59
2023-05-05T12:42:22.604Z,101820.72
2023-05-05T12:44:49.331Z,101814.66
2023-05-05T12:47:30.626Z,101812.84
2023-05-05T12:49:57.933Z,101807.31
2023-05-05T12:52:24.375Z,101806.31
2023-05-05T12:54:58.413Z,101802.63
2023-05-05T12:57:26.079Z,101811.13
2023-05-05T12:59:53.593Z,101800.00
2023-05-05T13:02:20.802Z,101804.22
2023-05-05T13:04:53.326Z,101813.78
2023-05-05T13:07:21.741Z,101797.47
2023-05-05T13:09:50.004Z,101801.94
2023-05-05T13:12:21.073Z,101799.94
2023-05-05T13:14:48.330Z,101809.38
2023-05-05T13:17:14.953Z,101813.59
2023-05-05T13:19:46.622Z,101812.69
2023-05-05T13:22:13.457Z,101807.63
2023-05-05T13:24:51.042Z,101814.00
2023-05-05T13:27:18.995Z,101809.69
2023-05-05T13:29:45.365Z,101814.06
2023-05-05T13:32:11.785Z,101811.53
2023-05-05T13:34:39.142Z,101818.47
2023-05-05T13:37:05.865Z,101826.28
2023-05-05T13:39:32.357Z,101827.81
2023-05-05T13:41:58.804Z,101838.03
2023-05-05T13:44:25.256Z,101828.50
2023-05-05T13:46:51.681Z,101829.53
2023-05-05T13:49:18.187Z,101835.69
2023-05-05T13:51:46.672Z,101836.66
2023-05-05T13:54:13.140Z,101833.31
2023-05-05T13:56:39.556Z,101837.66
2023-05-05T13:59:05.952Z,101829.97
2023-05-05T14:01:32.511Z,101826.56
2023-05-05T14:03:59.099Z,101823.34
2023-05-05T14:06:25.991Z,101820.78
2023-05-05T14:08:52.466Z,101824.25
2023-05-05T14:11:20.630Z,101819.19
2023-05-05T14:13:47.510Z,101816.53
2023-05-05T14:16:14.245Z,101812.03
2023-05-05T14:18:40.795Z,101803.41
2023-05-05T14:21:07.426Z,101796.25
2023-05-05T14:23:33.991Z,101802.16
2023-05-05T14:26:00.925Z,101787.34
2023-05-05T14:28:27.439Z,101778.84
2023-05-05T14:30:53.846Z,101784.97
2023-05-05T14:33:20.349Z,101776.31
2023-05-05T14:35:46.778Z,101775.09
2023-05-05T14:38:13.237Z,101767.28
2023-05-05T14:40:39.616Z,101755.41
2023-05-05T14:43:06.136Z,101758.06
2023-05-05T14:45:32.638Z,101741.66
2023-05-05T14:47:59.127Z,101728.84
2023-05-05T14:50:25.709Z,101730.34
2023-05-05T14:52:52.389Z,101732.88
2023-05-05T14:55:18.996Z,101750.34
2023-05-05T14:57:45.721Z,101764.28
2023-05-05T15:00:12.797Z,101781.03
2023-05-05T15:02:39.300Z,101767.31
2023-05-05T15:05:06.338Z,101771.47
2023-05-05T15:07:33.129Z,101772.09
2023-05-05T15:09:59.647Z,101772.16
2023-05-05T15:12:26.204Z,101768.22
2023-05-05T15:14:52.750Z,101772.56
2023-05-05T15:17:19.277Z,101769.25
2023-05-05T15:19:45.962Z,101773.34
2023-05-05T15:22:12.363Z,101765.56
2023-05-05T15:24:38.865Z,101756.69
2023-05-05T15:27:05.360Z,101759.56
2023-05-05T15:29:31.966Z,101760.91
2023-05-05T15:31:58.635Z,101757.16
2023-05-05T15:34:25.189Z,101757.72
2023-05-05T15:36:51.759Z,101747.69
2023-05-05T15:39:18.729Z,101742.66
2023-05-05T15:41:45.262Z,101745.72
2023-05-05T15:44:12.462Z,101743.56
2023-05-05T15:46:39.740Z,101746.13
2023-05-05T15:49:06.462Z,101731.69
2023-05-05T15:51:33.038Z,101739.69
2023-05-05T15:54:00.185Z,101734.56
2023-05-05T15:56:29.675Z,101733.75
2023-05-05T15:58:56.909Z,101733.88
2023-05-05T16:01:23.746Z,101733.13
2023-05-05T16:03:50.314Z,101734.81
2023-05-05T16:06:16.670Z,101735.38
2023-05-05T16:08:43.140Z,101729.84
2023-05-05T16:11:09.628Z,101735.78
2023-05-05T16:13:35.989Z,101728.28
2023-05-05T16:16:02.414Z,101726.34
2023-05-05T16:18:28.784Z,101733.59
2023-05-05T16:20:55.152Z,101727.06
2023-05-05T16:23:21.519Z,101733.16
2023-05-05T16:25:47.997Z,101725.19
2023-05-05T16:28:14.385Z,101720.84
2023-05-05T16:30:42.723Z,101718.44
2023-05-05T16:33:09.263Z,101722.19
2023-05-05T16:35:36.211Z,101714.41
2023-05-05T16:38:02.745Z,101722.13
2023-05-05T16:40:29.445Z,101720.16
2023-05-05T16:42:55.987Z,101714.13
2023-05-05T16:45:22.674Z,101711.03
2023-05-05T16:47:49.232Z,101720.56
2023-05-05T16:50:17.314Z,101721.09
2023-05-05T16:52:43.788Z,101714.53
2023-05-05T16:55:10.334Z,101716.97
2023-05-05T16:57:36.968Z,101713.13
2023-05-05T17:00:05.007Z,101715.41
2023-05-05T17:02:31.961Z,101721.09
2023-05-05T17:04:58.541Z,101720.94
2023-05-05T17:07:25.043Z,101723.81
2023-05-05T17:09:51.908Z,101724.75
2023-05-05T17:12:18.525Z,101719.19
2023-05-05T17:14:47.743Z,101724.84
2023-05-05T17:17:14.274Z,101720.44
2023-05-05T17:19:42.487Z,101718.00
2023-05-05T17:22:09.034Z,101722.53
2023-05-05T17:24:35.566Z,101726.44
2023-05-05T17:27:02.134Z,101721.34
2023-05-05T17:29:28.684Z,101726.72
2023-05-05T17:31:55.286Z,101726.38
2023-05-05T17:34:22.042Z,101726.66
2023-05-05T17:36:48.725Z,101724.59
2023-05-05T17:39:15.254Z,101721.69
2023-05-05T17:41:42.489Z,101720.84
2023-05-05T17:44:08.913Z,101716.81
2023-05-05T17:46:36.221Z,101722.38
2023-05-05T17:49:02.889Z,101726.03
2023-05-05T17:51:29.342Z,101732.94
2023-05-05T17:53:56.117Z,101723.31
2023-05-05T17:56:22.963Z,101725.34
2023-05-05T17:58:49.646Z,101735.31
2023-05-05T18:01:26.493Z,101741.47
2023-05-05T18:03:53.079Z,101747.34
2023-05-05T18:06:19.533Z,101725.94
2023-05-05T18:08:46.563Z,101739.31
2023-05-05T18:11:13.036Z,101744.25
2023-05-05T18:13:39.550Z,101747.16
2023-05-05T18:16:06.545Z,101738.66
2023-05-05T18:18:33.127Z,101743.50
2023-05-05T18:20:59.665Z,101743.75
2023-05-05T18:23:26.110Z,101736.47
2023-05-05T18:25:52.551Z,101737.03
2023-05-05T18:28:19.042Z,101740.63
2023-05-05T18:30:45.577Z,101731.22
2023-05-05T18:33:12.064Z,101736.00
2023-05-05T18:35:38.528Z,101750.34
2023-05-05T18:38:05.353Z,101746.84
2023-05-05T18:40:31.860Z,101747.25
2023-05-05T18:42:58.330Z,101740.81
2023-05-05T18:45:24.928Z,101750.81
2023-05-05T18:47:51.354Z,101750.28
2023-05-05T18:50:17.797Z,101744.50
2023-05-05T18:52:44.198Z,101749.00
2023-05-05T18:55:10.813Z,101750.78
2023-05-05T18:57:37.407Z,101750.63
2023-05-05T19:00:04.169Z,101750.69
2023-05-05T19:02:30.768Z,101755.59
2023-05-05T19:04:57.342Z,101760.56
2023-05-05T19:07:34.392Z,101751.53
2023-05-05T19:10:10.744Z,101758.69
2023-05-05T19:12:37.225Z,101760.69
2023-05-05T19:15:03.958Z,101762.91
2023-05-05T19:17:30.597Z,101762.72
2023-05-05T19:19:56.975Z,101758.94
2023-05-05T19:22:23.990Z,101766.09
2023-05-05T19:24:50.479Z,101767.94
2023-05-05T19:27:17.293Z,101771.66
2023-05-05T19:29:44.150Z,101769.47
2023-05-05T19:32:11.035Z,101775.69
2023-05-05T19:34:37.583Z,101777.69
2023-05-05T19:37:04.025Z,101782.91
2023-05-05T19:39:30.642Z,101794.25
2023-05-05T19:41:56.990Z,101790.06
2023-05-05T19:44:23.921Z,101793.72
2023-05-05T19:46:52.739Z,101785.31
2023-05-05T19:49:19.342Z,101787.16
2023-05-05T19:51:47.575Z,101788.16
2023-05-05T19:54:14.060Z,101787.59
2023-05-05T19:56:40.596Z,101788.75
2023-05-05T19:59:07.189Z,101786.25
2023-05-05T20:01:35.503Z,101781.13
2023-05-05T20:04:03.504Z,101790.75
2023-05-05T20:06:29.942Z,101790.97
2023-05-05T20:08:56.389Z,101797.22
2023-05-05T20:11:22.774Z,101788.88
2023-05-05T20:13:49.943Z,101794.97
2023-05-05T20:16:16.550Z,101796.88
2023-05-05T20:18:43.529Z,101798.78
2023-05-05T20:21:10.118Z,101796.34
2023-05-05T20:23:37.080Z,101789.66
2023-05-05T20:26:03.825Z,101792.47
2023-05-05T20:28:34.137Z,101798.66
2023-05-05T20:31:01.028Z,101803.09
2023-05-05T20:33:30.827Z,101796.41
2023-05-05T20:35:57.264Z,101803.38
2023-05-05T20:38:24.008Z,101808.72
2023-05-05T20:40:50.938Z,101807.13
2023-05-05T20:43:17.508Z,101801.22
2023-05-05T20:45:44.222Z,101801.25
2023-05-05T20:48:11.335Z,101800.53
2023-05-05T20:50:38.513Z,101796.38
2023-05-05T20:53:07.501Z,101796.38
2023-05-05T20:55:33.887Z,101795.56
2023-05-05T20:58:00.257Z,101795.66
2023-05-05T21:00:27.039Z,101793.16
2023-05-05T21:02:53.667Z,101786.41
2023-05-05T21:05:20.211Z,101792.53
2023-05-05T21:07:46.719Z,101788.34
2023-05-05T21:10:13.205Z,101792.72
2023-05-05T21:12:40.214Z,101791.03
2023-05-05T21:15:08.243Z,101790.28
2023-05-05T21:17:34.909Z,101789.69
2023-05-05T21:20:01.552Z,101793.28
2023-05-05T21:22:28.049Z,101788.25
2023-05-05T21:24:54.608Z,101791.69
2023-05-05T21:27:21.171Z,101788.38
2023-05-05T21:29:50.482Z,101791.09
2023-05-05T21:32:16.879Z,101786.84
2023-05-05T21:34:43.258Z,101779.16
2023-05-05T21:37:09.672Z,101790.47
2023-05-05T21:39:36.091Z,101788.88
2023-05-05T21:42:02.561Z,101787.31
2023-05-05T21:44:29.045Z,101783.09
2023-05-05T21:46:55.679Z,101784.00
2023-05-05T21:49:22.583Z,101791.03
2023-05-05T21:51:49.820Z,101778.31
2023-05-05T21:54:16.335Z,101782.66
2023-05-05T21:56:42.763Z,101782.75
2023-05-05T21:59:09.121Z,101795.66
2023-05-05T22:01:35.606Z,101787.13
2023-05-05T22:04:02.101Z,101780.41
2023-05-05T22:06:28.602Z,101776.22
2023-05-05T22:08:56.699Z,101775.38
2023-05-05T22:11:23.757Z,101784.03
2023-05-05T22:13:50.574Z,101790.19
2023-05-05T22:16:20.023Z,101780.78
2023-05-05T22:18:46.791Z,101785.16
2023-05-05T22:21:13.182Z,101790.28
2023-05-05T22:23:41.781Z,101788.66
2023-05-05T22:26:09.358Z,101791.19
2023-05-05T22:28:36.235Z,101792.03
2023-05-05T22:31:02.725Z,101781.75
2023-05-05T22:33:29.292Z,101785.94
2023-05-05T22:35:55.974Z,101781.63
2023-05-05T22:38:22.589Z,101778.25
2023-05-05T22:40:49.064Z,101784.28
2023-05-05T22:43:15.549Z,101785.19
2023-05-05T22:45:43.179Z,101781.75
2023-05-05T22:48:09.585Z,101787.75
2023-05-05T22:50:36.159Z,101780.00
2023-05-05T22:53:02.589Z,101780.75
2023-05-05T22:55:29.048Z,101781.59
2023-05-05T22:57:55.511Z,101782.47
2023-05-05T23:00:21.931Z,101776.41
2023-05-05T23:02:48.362Z,101772.13
2023-05-05T23:05:14.797Z,101778.97
2023-05-05T23:07:41.163Z,101779.84
2023-05-05T23:10:08.066Z,101773.81
2023-05-05T23:12:34.507Z,101778.06
2023-05-05T23:15:00.957Z,101775.56
2023-05-05T23:17:27.428Z,101776.44
2023-05-05T23:19:53.818Z,101778.97
2023-05-05T23:22:20.298Z,101776.41
2023-05-05T23:24:46.698Z,101780.66
2023-05-05T23:27:13.279Z,101770.31
2023-05-05T23:29:39.765Z,101770.31
2023-05-05T23:32:06.366Z,101762.66
2023-05-05T23:34:32.739Z,101761.00
2023-05-05T23:36:59.138Z,101772.31
2023-05-05T23:39:25.581Z,101770.66
2023-05-05T23:41:51.954Z,101771.56
2023-05-05T23:44:18.344Z,101764.75
2023-05-05T23:46:44.761Z,101760.44
2023-05-05T23:49:11.293Z,101768.13
2023-05-05T23:51:37.714Z,101763.81
2023-05-05T23:54:04.231Z,101762.03
2023-05-05T23:56:30.941Z,101768.91
2023-05-05T23:58:57.353Z,101765.50
